Time;durP1;ratioP1;P1;durP2;ratioP2;P2;SDS_P1;SDS_P2;PMS_P1;PMS_P2;Temp;Humidity;BMP_temperature;BMP_pressure;BME280_temperature;BME280_humidity;BME280_pressure;Samples;Min_cycle;Max_cycle;Signal;HPM_P1;HPM_P2
2022/03/24 00:00:59;;;;;;;36.37;21.00;;;;;;;;;;5051007;28;20589;-70
2022/03/24 00:03:24;;;;;;;35.80;21.03;;;;;;;;;;5043997;28;20213;-70
2022/03/24 00:05:49;;;;;;;30.00;20.43;;;;;;;;;;5042199;28;20204;-71
2022/03/24 00:08:15;;;;;;;28.60;20.17;;;;;;;;;;5050776;28;20284;-70
2022/03/24 00:10:40;;;;;;;39.23;22.03;;;;;;;;;;5049887;28;20705;-68
2022/03/24 00:13:05;;;;;;;36.97;21.07;;;;;;;;;;5046543;28;20173;-69
2022/03/24 00:15:30;;;;;;;33.53;21.97;;;;;;;;;;5048602;28;20645;-69
2022/03/24 00:17:56;;;;;;;39.50;23.43;;;;;;;;;;5049221;28;20208;-70
2022/03/24 00:20:21;;;;;;;37.83;21.27;;;;;;;;;;5051184;28;20173;-69
2022/03/24 00:22:46;;;;;;;31.37;20.57;;;;;;;;;;5046839;28;20165;-68
2022/03/24 00:25:12;;;;;;;35.30;22.80;;;;;;;;;;5050535;28;20192;-69
2022/03/24 00:27:37;;;;;;;34.77;20.37;;;;;;;;;;5057106;28;20193;-69
2022/03/24 00:30:03;;;;;;;34.37;21.17;;;;;;;;;;5049139;28;20246;-69
2022/03/24 00:32:28;;;;;;;30.37;19.03;;;;;;;;;;5057664;28;20185;-69
2022/03/24 00:34:54;;;;;;;28.27;19.10;;;;;;;;;;5053547;28;20181;-68
2022/03/24 00:37:19;;;;;;;31.00;19.33;;;;;;;;;;5051247;28;20205;-69
2022/03/24 00:39:45;;;;;;;34.90;19.10;;;;;;;;;;5051958;28;20178;-69
2022/03/24 00:42:11;;;;;;;31.00;20.63;;;;;;;;;;5056213;28;20176;-70
2022/03/24 00:44:37;;;;;;;32.00;20.07;;;;;;;;;;5053667;28;20658;-68
2022/03/24 00:47:03;;;;;;;28.67;18.03;;;;;;;;;;5054132;28;20213;-69
2022/03/24 00:49:28;;;;;;;32.27;18.47;;;;;;;;;;5055148;28;20205;-68
2022/03/24 00:51:54;;;;;;;30.37;18.43;;;;;;;;;;5044130;28;20210;-69
2022/03/24 00:54:19;;;;;;;28.23;17.87;;;;;;;;;;5049655;28;20175;-69
2022/03/24 00:56:45;;;;;;;28.93;18.60;;;;;;;;;;5052937;28;20174;-69
2022/03/24 00:59:11;;;;;;;28.70;18.23;;;;;;;;;;5054020;28;20216;-70
2022/03/24 01:01:39;;;;;;;33.33;20.53;;;;;;;;;;5051146;28;20170;-70
2022/03/24 01:04:04;;;;;;;29.33;19.33;;;;;;;;;;5053669;28;20658;-69
2022/03/24 01:06:29;;;;;;;30.47;20.17;;;;;;;;;;5048915;28;20244;-69
2022/03/24 01:08:55;;;;;;;34.23;20.90;;;;;;;;;;5053353;28;20193;-69
2022/03/24 01:11:20;;;;;;;38.03;20.37;;;;;;;;;;5042969;28;20186;-70
2022/03/24 01:13:45;;;;;;;34.83;22.53;;;;;;;;;;5055668;28;20184;-70
2022/03/24 01:16:10;;;;;;;37.10;22.40;;;;;;;;;;5054148;28;20654;-71
2022/03/24 01:18:37;;;;;;;35.87;21.13;;;;;;;;;;5054708;28;20569;-71
2022/03/24 01:21:03;;;;;;;31.83;20.43;;;;;;;;;;5056608;28;20670;-69
2022/03/24 01:23:28;;;;;;;35.50;22.23;;;;;;;;;;5055020;28;20173;-69
2022/03/24 01:25:54;;;;;;;41.80;23.83;;;;;;;;;;5057206;28;20186;-70
2022/03/24 01:28:19;;;;;;;42.43;25.37;;;;;;;;;;5055438;28;20212;-69
2022/03/24 01:30:45;;;;;;;40.13;25.03;;;;;;;;;;5056445;28;20181;-69
2022/03/24 01:33:10;;;;;;;37.37;23.20;;;;;;;;;;5053159;28;20268;-69
2022/03/24 01:35:35;;;;;;;38.97;22.93;;;;;;;;;;5051399;28;20190;-69
2022/03/24 01:38:01;;;;;;;40.73;23.83;;;;;;;;;;5051592;28;20225;-70
2022/03/24 01:40:26;;;;;;;38.90;22.97;;;;;;;;;;5052701;28;20190;-69
2022/03/24 01:42:51;;;;;;;39.50;24.77;;;;;;;;;;5048124;28;20208;-69
2022/03/24 01:45:16;;;;;;;42.10;26.73;;;;;;;;;;5048481;28;20213;-70
2022/03/24 01:47:42;;;;;;;43.83;26.90;;;;;;;;;;5046751;28;20250;-70
2022/03/24 01:50:08;;;;;;;37.17;24.90;;;;;;;;;;5051393;28;20178;-69
2022/03/24 01:52:33;;;;;;;37.63;24.57;;;;;;;;;;5049751;28;20686;-70
2022/03/24 01:54:59;;;;;;;38.50;23.73;;;;;;;;;;5049575;28;20173;-69
2022/03/24 01:57:26;;;;;;;36.97;23.47;;;;;;;;;;5049816;28;20217;-69
2022/03/24 01:59:52;;;;;;;38.20;24.67;;;;;;;;;;5046885;28;20559;-69
2022/03/24 02:02:17;;;;;;;39.23;25.30;;;;;;;;;;5051310;28;20181;-69
2022/03/24 02:04:43;;;;;;;43.60;25.37;;;;;;;;;;5059456;28;20178;-69
2022/03/24 02:07:08;;;;;;;39.47;25.23;;;;;;;;;;5054621;28;20229;-69
2022/03/24 02:09:35;;;;;;;38.67;25.57;;;;;;;;;;5051071;28;20193;-68
2022/03/24 02:12:00;;;;;;;42.07;26.70;;;;;;;;;;5043477;28;20182;-69
2022/03/24 02:14:29;;;;;;;38.30;24.97;;;;;;;;;;5050230;28;20573;-69
2022/03/24 02:16:54;;;;;;;37.17;24.30;;;;;;;;;;5050356;28;20220;-69
2022/03/24 02:19:24;;;;;;;39.63;24.03;;;;;;;;;;5046255;28;20647;-69
2022/03/24 02:21:52;;;;;;;41.00;25.00;;;;;;;;;;5051951;28;20196;-69
2022/03/24 02:24:18;;;;;;;46.23;26.67;;;;;;;;;;5047836;28;20178;-69
2022/03/24 02:26:44;;;;;;;43.90;26.37;;;;;;;;;;5041216;28;20186;-68
2022/03/24 02:29:13;;;;;;;45.97;26.40;;;;;;;;;;5045219;28;20548;-69
2022/03/24 02:31:39;;;;;;;45.13;26.50;;;;;;;;;;5041544;28;20182;-68
2022/03/24 02:36:49;;;;;;;39.53;24.90;;;;;;;;;;5047324;28;20235;-69
2022/03/24 02:39:14;;;;;;;45.13;25.97;;;;;;;;;;5051417;28;20209;-69
2022/03/24 02:41:51;;;;;;;44.63;25.27;;;;;;;;;;5048562;28;20280;-68
2022/03/24 02:44:17;;;;;;;42.57;26.67;;;;;;;;;;5045069;28;20180;-68
2022/03/24 02:46:42;;;;;;;43.07;25.17;;;;;;;;;;5047204;28;20177;-69
2022/03/24 02:49:08;;;;;;;40.67;26.80;;;;;;;;;;5045731;28;20197;-70
2022/03/24 02:51:33;;;;;;;41.17;23.57;;;;;;;;;;5048549;28;20213;-69
2022/03/24 02:53:59;;;;;;;41.10;24.33;;;;;;;;;;5051107;28;20225;-69
2022/03/24 02:56:24;;;;;;;41.93;25.87;;;;;;;;;;5051549;28;20181;-69
2022/03/24 02:58:50;;;;;;;42.43;24.57;;;;;;;;;;5048535;28;20263;-69
2022/03/24 03:01:15;;;;;;;38.70;24.23;;;;;;;;;;5049138;28;20212;-70
2022/03/24 03:03:41;;;;;;;40.13;26.03;;;;;;;;;;5048143;28;20628;-70
2022/03/24 03:06:06;;;;;;;44.10;26.50;;;;;;;;;;5046408;28;20223;-70
2022/03/24 03:08:31;;;;;;;44.00;27.60;;;;;;;;;;5051954;28;20726;-70
2022/03/24 03:10:56;;;;;;;41.73;27.73;;;;;;;;;;5049455;28;20174;-69
2022/03/24 03:13:21;;;;;;;42.13;26.33;;;;;;;;;;5049042;28;20173;-70
2022/03/24 03:15:47;;;;;;;47.47;27.00;;;;;;;;;;5049017;28;21339;-70
2022/03/24 03:18:12;;;;;;;43.63;26.73;;;;;;;;;;5050534;28;20216;-71
2022/03/24 03:20:37;;;;;;;44.97;25.93;;;;;;;;;;5048005;28;20291;-70
2022/03/24 03:23:03;;;;;;;46.30;27.37;;;;;;;;;;5050306;28;20178;-69
2022/03/24 03:25:29;;;;;;;47.27;26.93;;;;;;;;;;5049697;28;20556;-69
2022/03/24 03:27:54;;;;;;;46.60;25.47;;;;;;;;;;5040430;28;20202;-69
2022/03/24 03:30:19;;;;;;;42.53;26.63;;;;;;;;;;5035197;28;20206;-68
2022/03/24 03:32:45;;;;;;;40.50;25.47;;;;;;;;;;5049932;28;20180;-69
2022/03/24 03:35:10;;;;;;;37.07;22.60;;;;;;;;;;5050706;28;20188;-69
2022/03/24 03:37:36;;;;;;;40.87;24.33;;;;;;;;;;5049184;28;20663;-69
2022/03/24 03:40:01;;;;;;;41.00;23.47;;;;;;;;;;5046589;28;20192;-69
2022/03/24 03:42:27;;;;;;;44.40;24.83;;;;;;;;;;5046750;28;20170;-69
2022/03/24 03:44:52;;;;;;;38.00;23.93;;;;;;;;;;5052312;28;20204;-69
2022/03/24 03:47:18;;;;;;;45.60;26.33;;;;;;;;;;5034078;28;20711;-69
2022/03/24 03:49:43;;;;;;;47.77;29.27;;;;;;;;;;5042847;28;20185;-69
2022/03/24 03:52:08;;;;;;;42.93;26.50;;;;;;;;;;5047269;28;20182;-69
2022/03/24 03:54:33;;;;;;;46.20;26.97;;;;;;;;;;5045419;28;20177;-69
2022/03/24 03:56:59;;;;;;;55.00;30.73;;;;;;;;;;5049648;28;20197;-69
2022/03/24 03:59:24;;;;;;;49.60;28.50;;;;;;;;;;5048444;28;20174;-69
2022/03/24 04:01:49;;;;;;;47.23;28.00;;;;;;;;;;5049843;28;20201;-69
2022/03/24 04:04:15;;;;;;;44.70;25.50;;;;;;;;;;5045728;28;20223;-69
2022/03/24 04:06:41;;;;;;;49.40;29.73;;;;;;;;;;5049776;28;20184;-69
2022/03/24 04:09:06;;;;;;;46.17;25.77;;;;;;;;;;5048095;28;20674;-68
2022/03/24 04:11:31;;;;;;;47.17;27.50;;;;;;;;;;5048527;28;20418;-69
2022/03/24 04:13:56;;;;;;;49.40;30.73;;;;;;;;;;5049642;28;20177;-69
2022/03/24 04:16:22;;;;;;;46.70;28.00;;;;;;;;;;5049396;28;20193;-69
2022/03/24 04:18:48;;;;;;;50.13;29.03;;;;;;;;;;5047371;28;20193;-68
2022/03/24 04:21:13;;;;;;;46.57;28.10;;;;;;;;;;5050379;28;20545;-69
2022/03/24 04:23:39;;;;;;;49.73;31.70;;;;;;;;;;5049254;28;20227;-69
2022/03/24 04:26:04;;;;;;;45.03;27.33;;;;;;;;;;5049036;28;20565;-71
2022/03/24 04:28:30;;;;;;;43.57;26.23;;;;;;;;;;5048903;28;20198;-70
2022/03/24 04:30:55;;;;;;;52.93;29.37;;;;;;;;;;5048114;28;20173;-70
2022/03/24 04:33:20;;;;;;;51.13;29.13;;;;;;;;;;5049531;28;20670;-70
2022/03/24 04:35:45;;;;;;;51.80;31.87;;;;;;;;;;5050236;28;20177;-71
2022/03/24 04:38:12;;;;;;;57.00;33.33;;;;;;;;;;5049623;28;20291;-69
2022/03/24 04:40:37;;;;;;;50.80;29.63;;;;;;;;;;5051003;28;20626;-69
2022/03/24 04:43:04;;;;;;;53.27;30.40;;;;;;;;;;5048834;28;20173;-69
2022/03/24 04:45:32;;;;;;;48.33;28.90;;;;;;;;;;5046326;28;20647;-69
2022/03/24 04:47:58;;;;;;;45.43;27.17;;;;;;;;;;5041056;28;20655;-69
2022/03/24 04:50:23;;;;;;;45.93;25.80;;;;;;;;;;5043943;28;20255;-69
2022/03/24 04:52:49;;;;;;;46.30;25.87;;;;;;;;;;5042438;28;20184;-69
2022/03/24 04:55:15;;;;;;;38.83;24.10;;;;;;;;;;5048355;28;20265;-69
2022/03/24 04:57:41;;;;;;;39.27;23.63;;;;;;;;;;5048232;28;20280;-69
2022/03/24 05:00:09;;;;;;;38.20;23.33;;;;;;;;;;5048628;28;20564;-69
2022/03/24 05:02:34;;;;;;;40.13;25.40;;;;;;;;;;5047117;28;20185;-71
2022/03/24 05:04:59;;;;;;;41.00;26.30;;;;;;;;;;5044734;28;20651;-69
2022/03/24 05:07:26;;;;;;;49.07;26.60;;;;;;;;;;5046525;28;20193;-69
2022/03/24 05:09:53;;;;;;;46.90;27.80;;;;;;;;;;5047989;28;20178;-69
2022/03/24 05:12:18;;;;;;;49.20;29.93;;;;;;;;;;5056664;28;20185;-68
2022/03/24 05:14:44;;;;;;;52.83;30.23;;;;;;;;;;5048671;28;20293;-69
2022/03/24 05:17:09;;;;;;;53.80;31.23;;;;;;;;;;5051073;28;20213;-68
2022/03/24 05:19:34;;;;;;;53.70;30.73;;;;;;;;;;5047422;28;20166;-71
2022/03/24 05:22:01;;;;;;;57.77;32.33;;;;;;;;;;5051403;28;20708;-68
2022/03/24 05:24:26;;;;;;;52.67;31.00;;;;;;;;;;5052333;28;20720;-69
2022/03/24 05:26:51;;;;;;;53.80;31.00;;;;;;;;;;5052018;28;20177;-69
2022/03/24 05:29:16;;;;;;;54.13;31.80;;;;;;;;;;5052153;28;20186;-69
2022/03/24 05:31:41;;;;;;;47.10;30.03;;;;;;;;;;5050969;28;20185;-71
2022/03/24 05:34:07;;;;;;;50.87;29.10;;;;;;;;;;5051114;28;20186;-71
2022/03/24 05:36:32;;;;;;;38.07;23.80;;;;;;;;;;5053906;28;20185;-68
2022/03/24 05:38:58;;;;;;;47.80;28.83;;;;;;;;;;5050679;28;20234;-69
2022/03/24 05:41:24;;;;;;;42.57;26.07;;;;;;;;;;5053709;28;20723;-68
2022/03/24 05:44:04;;;;;;;43.13;27.27;;;;;;;;;;5050774;28;20200;-69
2022/03/24 05:46:31;;;;;;;47.03;28.70;;;;;;;;;;5051632;28;20228;-68
2022/03/24 05:48:56;;;;;;;49.33;29.50;;;;;;;;;;5041451;28;20202;-68
2022/03/24 05:51:22;;;;;;;48.30;28.97;;;;;;;;;;5042703;28;20189;-68
2022/03/24 05:53:47;;;;;;;40.37;24.07;;;;;;;;;;5050224;28;20272;-69
2022/03/24 05:56:12;;;;;;;35.63;22.57;;;;;;;;;;5051311;28;20663;-68
2022/03/24 05:58:37;;;;;;;34.60;21.97;;;;;;;;;;5048771;28;20344;-68
2022/03/24 06:01:05;;;;;;;37.57;21.93;;;;;;;;;;5042028;28;20169;-69
2022/03/24 06:03:30;;;;;;;38.90;24.27;;;;;;;;;;5048369;28;20197;-70
2022/03/24 06:05:58;;;;;;;40.50;24.90;;;;;;;;;;5050524;28;20602;-69
2022/03/24 06:08:23;;;;;;;35.23;23.00;;;;;;;;;;5051915;28;20206;-69
2022/03/24 06:10:49;;;;;;;43.30;26.33;;;;;;;;;;5049635;28;20643;-69
2022/03/24 06:13:14;;;;;;;33.80;21.80;;;;;;;;;;5052032;28;20234;-68
2022/03/24 06:15:39;;;;;;;42.37;22.27;;;;;;;;;;5051264;28;20182;-68
2022/03/24 06:18:04;;;;;;;39.50;23.37;;;;;;;;;;5052367;28;20202;-71
2022/03/24 06:20:30;;;;;;;37.10;25.40;;;;;;;;;;5051024;28;20644;-69
2022/03/24 06:22:55;;;;;;;45.20;26.23;;;;;;;;;;5050660;28;20223;-69
2022/03/24 06:25:21;;;;;;;45.47;27.13;;;;;;;;;;5050755;28;20246;-69
2022/03/24 06:27:52;;;;;;;46.47;28.53;;;;;;;;;;5048628;28;20202;-69
2022/03/24 06:30:19;;;;;;;52.57;30.60;;;;;;;;;;5050201;28;20177;-69
2022/03/24 06:32:44;;;;;;;54.80;31.90;;;;;;;;;;5053060;28;20277;-69
2022/03/24 06:35:11;;;;;;;54.83;32.23;;;;;;;;;;5049433;28;20212;-69
2022/03/24 06:37:39;;;;;;;57.30;34.67;;;;;;;;;;5048960;28;20710;-68
2022/03/24 06:40:09;;;;;;;53.00;33.77;;;;;;;;;;5043227;28;20226;-69
2022/03/24 06:42:34;;;;;;;60.40;35.27;;;;;;;;;;5050587;28;20702;-69
2022/03/24 06:44:59;;;;;;;57.10;35.77;;;;;;;;;;5051374;28;20205;-67
2022/03/24 06:47:25;;;;;;;54.40;34.83;;;;;;;;;;5051674;28;20199;-67
2022/03/24 06:49:50;;;;;;;57.73;35.63;;;;;;;;;;5051419;28;20236;-68
2022/03/24 06:52:15;;;;;;;56.03;33.00;;;;;;;;;;5051083;28;20181;-69
2022/03/24 06:54:40;;;;;;;53.20;34.43;;;;;;;;;;5051345;28;20409;-71
2022/03/24 06:57:05;;;;;;;52.20;33.37;;;;;;;;;;5052237;28;20205;-68
2022/03/24 06:59:31;;;;;;;49.43;33.27;;;;;;;;;;5050962;28;20178;-71
2022/03/24 07:01:56;;;;;;;52.77;33.03;;;;;;;;;;5040107;28;20232;-70
2022/03/24 07:04:21;;;;;;;55.97;34.53;;;;;;;;;;5047868;28;20608;-70
2022/03/24 07:06:47;;;;;;;50.17;35.30;;;;;;;;;;5047038;28;20765;-68
2022/03/24 07:09:12;;;;;;;53.63;34.03;;;;;;;;;;5047328;28;20193;-69
2022/03/24 07:11:37;;;;;;;55.03;35.20;;;;;;;;;;5046388;28;20556;-69
2022/03/24 07:14:02;;;;;;;53.13;34.70;;;;;;;;;;5052079;28;20177;-69
2022/03/24 07:16:27;;;;;;;49.00;33.00;;;;;;;;;;5050503;28;20177;-68
2022/03/24 07:18:53;;;;;;;47.83;33.20;;;;;;;;;;5050932;28;20205;-68
2022/03/24 07:21:19;;;;;;;43.70;31.57;;;;;;;;;;5041030;28;20265;-69
2022/03/24 07:23:44;;;;;;;47.77;32.60;;;;;;;;;;5034526;28;20670;-69
2022/03/24 07:26:09;;;;;;;52.93;31.30;;;;;;;;;;5040640;28;20173;-69
2022/03/24 07:28:35;;;;;;;43.13;30.80;;;;;;;;;;5058999;28;20685;-69
2022/03/24 07:31:07;;;;;;;43.50;30.57;;;;;;;;;;5055271;28;20189;-71
2022/03/24 07:33:32;;;;;;;42.17;29.13;;;;;;;;;;5047796;28;20360;-69
2022/03/24 07:35:58;;;;;;;39.60;29.93;;;;;;;;;;5051203;28;20719;-69
2022/03/24 07:38:23;;;;;;;39.87;29.87;;;;;;;;;;5051539;28;20217;-69
2022/03/24 07:40:48;;;;;;;43.13;29.53;;;;;;;;;;5051715;28;20178;-69
2022/03/24 07:43:13;;;;;;;37.20;26.50;;;;;;;;;;5047110;28;20273;-70
2022/03/24 07:45:39;;;;;;;38.97;26.13;;;;;;;;;;5051351;28;20227;-69
2022/03/24 07:48:16;;;;;;;36.00;25.90;;;;;;;;;;5050354;28;20216;-70
2022/03/24 07:50:42;;;;;;;35.23;26.27;;;;;;;;;;5044324;28;20165;-70
2022/03/24 07:53:14;;;;;;;38.75;26.27;;;;;;;;;;5051005;28;20264;-70
2022/03/24 07:55:41;;;;;;;37.30;25.85;;;;;;;;;;5049611;28;20170;-70
2022/03/24 07:58:06;;;;;;;36.13;27.58;;;;;;;;;;5042693;28;20208;-69
2022/03/24 08:00:32;;;;;;;37.85;25.63;;;;;;;;;;5048776;28;20255;-69
2022/03/24 08:02:57;;;;;;;35.58;27.23;;;;;;;;;;5060224;28;20572;-70
2022/03/24 08:05:22;;;;;;;29.83;24.45;;;;;;;;;;5047343;28;20234;-70
2022/03/24 08:07:47;;;;;;;42.65;27.00;;;;;;;;;;5037151;28;20754;-68
2022/03/24 08:10:12;;;;;;;31.88;23.50;;;;;;;;;;5044989;28;20182;-69
2022/03/24 08:12:38;;;;;;;30.90;24.15;;;;;;;;;;5047411;28;20558;-68
2022/03/24 08:15:03;;;;;;;33.70;25.23;;;;;;;;;;5047855;28;20197;-69
2022/03/24 08:17:28;;;;;;;32.60;24.00;;;;;;;;;;5049987;28;20454;-70
2022/03/24 08:19:53;;;;;;;34.25;24.70;;;;;;;;;;5039067;28;20216;-70
2022/03/24 08:22:19;;;;;;;32.27;24.80;;;;;;;;;;5046039;28;20174;-68
2022/03/24 08:24:44;;;;;;;30.95;22.38;;;;;;;;;;5042837;28;20428;-69
2022/03/24 08:27:10;;;;;;;37.17;26.77;;;;;;;;;;5049232;28;20197;-68
2022/03/24 08:29:35;;;;;;;33.30;23.83;;;;;;;;;;5050798;28;20411;-69
2022/03/24 08:32:00;;;;;;;30.73;25.58;;;;;;;;;;5049942;28;20445;-69
2022/03/24 08:34:25;;;;;;;33.15;25.33;;;;;;;;;;5050068;28;20270;-69
2022/03/24 08:36:50;;;;;;;29.80;24.63;;;;;;;;;;5045669;28;20540;-68
2022/03/24 08:39:16;;;;;;;31.97;24.93;;;;;;;;;;5039602;28;20591;-69
2022/03/24 08:41:41;;;;;;;28.45;23.65;;;;;;;;;;5041635;28;20426;-68
2022/03/24 08:44:06;;;;;;;29.80;22.97;;;;;;;;;;5045772;28;20221;-69
2022/03/24 08:46:31;;;;;;;25.25;21.10;;;;;;;;;;5050983;28;20496;-68
2022/03/24 08:48:56;;;;;;;28.35;21.65;;;;;;;;;;5051122;28;20205;-68
2022/03/24 08:51:22;;;;;;;23.10;19.50;;;;;;;;;;5047485;28;20263;-68
2022/03/24 08:53:48;;;;;;;27.63;21.00;;;;;;;;;;5052011;28;20457;-69
2022/03/24 08:56:14;;;;;;;26.75;20.98;;;;;;;;;;5046669;28;20182;-68
2022/03/24 08:58:39;;;;;;;23.23;20.20;;;;;;;;;;5050787;28;20204;-68
2022/03/24 09:01:05;;;;;;;22.73;20.23;;;;;;;;;;5049927;28;20178;-69
2022/03/24 09:03:30;;;;;;;24.10;21.08;;;;;;;;;;5046121;28;20177;-68
2022/03/24 09:05:55;;;;;;;23.03;18.87;;;;;;;;;;5052246;28;20258;-68
2022/03/24 09:08:20;;;;;;;24.03;20.00;;;;;;;;;;5049291;28;20442;-69
2022/03/24 09:10:47;;;;;;;25.13;20.33;;;;;;;;;;5050283;28;20418;-69
2022/03/24 09:13:12;;;;;;;25.67;21.40;;;;;;;;;;5052769;28;20937;-68
2022/03/24 09:15:38;;;;;;;23.80;20.65;;;;;;;;;;5049267;28;20186;-67
2022/03/24 09:18:04;;;;;;;26.95;19.65;;;;;;;;;;5051709;28;20206;-68
2022/03/24 09:20:29;;;;;;;23.05;20.33;;;;;;;;;;5047569;28;20176;-68
2022/03/24 09:22:54;;;;;;;24.47;19.80;;;;;;;;;;5054259;28;20761;-68
2022/03/24 09:25:20;;;;;;;22.67;20.30;;;;;;;;;;5047408;28;20468;-68
2022/03/24 09:27:46;;;;;;;22.85;19.92;;;;;;;;;;5047317;28;20519;-68
2022/03/24 09:30:18;;;;;;;22.73;19.75;;;;;;;;;;5032141;28;20200;-68
2022/03/24 09:32:45;;;;;;;23.00;20.58;;;;;;;;;;5051866;28;20184;-69
2022/03/24 09:35:10;;;;;;;21.02;18.77;;;;;;;;;;5048606;28;20186;-67
2022/03/24 09:37:35;;;;;;;26.43;21.00;;;;;;;;;;5052001;28;20278;-67
2022/03/24 09:40:02;;;;;;;21.87;19.60;;;;;;;;;;5053390;28;20414;-67
2022/03/24 09:42:28;;;;;;;25.35;21.08;;;;;;;;;;5050756;28;20490;-67
2022/03/24 09:44:56;;;;;;;22.08;19.67;;;;;;;;;;5055148;28;20182;-67
2022/03/24 09:47:22;;;;;;;23.88;19.73;;;;;;;;;;5043005;28;20607;-67
2022/03/24 09:49:47;;;;;;;23.23;19.55;;;;;;;;;;5042508;28;20307;-67
2022/03/24 09:52:13;;;;;;;25.33;20.83;;;;;;;;;;5047279;28;20202;-68
2022/03/24 09:54:39;;;;;;;22.92;20.33;;;;;;;;;;5048138;28;20422;-68
2022/03/24 09:57:05;;;;;;;24.95;19.70;;;;;;;;;;5052833;28;20304;-68
2022/03/24 09:59:31;;;;;;;22.63;19.80;;;;;;;;;;5050929;28;20200;-68
2022/03/24 10:01:56;;;;;;;26.65;20.33;;;;;;;;;;5051735;28;20169;-68
2022/03/24 10:04:21;;;;;;;23.42;20.25;;;;;;;;;;5050567;28;20184;-67
2022/03/24 10:07:00;;;;;;;21.73;19.45;;;;;;;;;;5050185;28;20255;-67
2022/03/24 10:09:35;;;;;;;23.83;17.95;;;;;;;;;;5049052;28;20201;-68
2022/03/24 10:12:01;;;;;;;21.40;19.02;;;;;;;;;;5047410;28;20185;-67
2022/03/24 10:14:26;;;;;;;23.33;19.33;;;;;;;;;;5051279;28;20182;-68
2022/03/24 10:16:51;;;;;;;21.93;19.60;;;;;;;;;;5050601;28;20185;-68
2022/03/24 10:19:17;;;;;;;25.43;18.60;;;;;;;;;;5052636;28;20209;-68
2022/03/24 10:21:45;;;;;;;27.55;18.60;;;;;;;;;;5052761;28;20177;-68
2022/03/24 10:24:18;;;;;;;21.98;19.67;;;;;;;;;;5047262;28;20180;-68
2022/03/24 10:26:44;;;;;;;21.08;18.95;;;;;;;;;;5048733;28;20261;-68
2022/03/24 10:29:14;;;;;;;21.77;19.50;;;;;;;;;;5051113;28;20288;-68
2022/03/24 10:31:41;;;;;;;19.50;17.42;;;;;;;;;;5048402;28;20547;-68
2022/03/24 10:34:06;;;;;;;22.27;17.70;;;;;;;;;;5048594;28;20441;-67
2022/03/24 10:36:32;;;;;;;24.27;18.08;;;;;;;;;;5048689;28;20235;-68
2022/03/24 10:39:00;;;;;;;19.83;16.77;;;;;;;;;;5046455;28;20218;-68
2022/03/24 10:41:26;;;;;;;21.52;17.13;;;;;;;;;;5054767;28;20185;-67
2022/03/24 10:43:53;;;;;;;19.08;16.90;;;;;;;;;;5048839;28;20178;-67
2022/03/24 10:46:20;;;;;;;19.85;17.75;;;;;;;;;;5051367;28;20209;-68
2022/03/24 10:48:49;;;;;;;19.27;17.27;;;;;;;;;;5051188;28;20194;-68
2022/03/24 10:51:20;;;;;;;19.25;17.35;;;;;;;;;;5052625;28;20217;-67
2022/03/24 10:53:46;;;;;;;19.67;17.67;;;;;;;;;;5050847;28;20197;-67
2022/03/24 10:56:11;;;;;;;20.07;17.50;;;;;;;;;;5051409;28;20209;-66
2022/03/24 10:58:39;;;;;;;20.73;17.25;;;;;;;;;;5047573;28;20458;-67
2022/03/24 11:01:12;;;;;;;19.92;16.63;;;;;;;;;;5052454;28;20173;-68
2022/03/24 11:03:38;;;;;;;24.75;17.98;;;;;;;;;;5043876;28;20182;-68
2022/03/24 11:06:04;;;;;;;22.23;18.17;;;;;;;;;;5055619;28;20260;-68
2022/03/24 11:08:29;;;;;;;26.70;17.63;;;;;;;;;;5051274;28;20208;-68
2022/03/24 11:10:54;;;;;;;18.23;15.57;;;;;;;;;;5051475;28;20174;-67
2022/03/24 11:13:23;;;;;;;22.33;17.30;;;;;;;;;;5047999;28;20468;-67
2022/03/24 11:15:50;;;;;;;23.30;18.50;;;;;;;;;;5063065;28;20236;-68
2022/03/24 11:18:15;;;;;;;20.50;17.80;;;;;;;;;;5052032;28;20281;-67
2022/03/24 11:20:41;;;;;;;25.10;17.42;;;;;;;;;;5051103;28;20641;-68
2022/03/24 11:23:31;;;;;;;24.33;18.67;;;;;;;;;;5047130;28;20564;-70
2022/03/24 11:25:59;;;;;;;22.60;18.40;;;;;;;;;;5044684;28;20255;-66
2022/03/24 11:28:24;;;;;;;26.02;18.05;;;;;;;;;;5050299;28;20702;-67
2022/03/24 11:30:50;;;;;;;22.40;19.00;;;;;;;;;;5054000;28;20224;-68
2022/03/24 11:33:16;;;;;;;23.90;18.75;;;;;;;;;;5024121;28;20431;-67
2022/03/24 11:35:42;;;;;;;24.13;18.25;;;;;;;;;;5043751;28;20196;-68
2022/03/24 11:38:07;;;;;;;24.00;18.45;;;;;;;;;;5047595;28;20691;-67
2022/03/24 11:40:33;;;;;;;23.63;18.33;;;;;;;;;;5051533;28;20173;-68
2022/03/24 11:43:04;;;;;;;22.10;18.02;;;;;;;;;;5052654;28;20633;-68
2022/03/24 11:45:35;;;;;;;27.33;19.00;;;;;;;;;;5048490;28;20176;-67
2022/03/24 11:48:00;;;;;;;24.23;18.83;;;;;;;;;;5049097;28;20195;-68
2022/03/24 11:50:34;;;;;;;27.63;19.00;;;;;;;;;;5048604;28;20297;-67
2022/03/24 11:53:08;;;;;;;28.55;19.15;;;;;;;;;;5053166;28;20681;-68
2022/03/24 11:55:34;;;;;;;24.00;19.17;;;;;;;;;;5047465;28;20182;-69
2022/03/24 11:58:00;;;;;;;24.63;19.25;;;;;;;;;;5050149;28;20216;-68
2022/03/24 12:00:25;;;;;;;28.15;20.65;;;;;;;;;;5050236;28;20239;-68
2022/03/24 12:02:51;;;;;;;27.83;21.70;;;;;;;;;;5044644;28;20169;-68
2022/03/24 12:05:16;;;;;;;28.33;20.67;;;;;;;;;;5050237;28;20268;-68
2022/03/24 12:07:41;;;;;;;23.42;20.98;;;;;;;;;;5046182;28;20345;-68
2022/03/24 12:10:08;;;;;;;29.15;20.50;;;;;;;;;;5047668;28;20173;-68
2022/03/24 12:12:34;;;;;;;24.67;21.48;;;;;;;;;;5044099;28;20373;-68
2022/03/24 12:15:08;;;;;;;23.92;20.35;;;;;;;;;;5049943;28;20568;-68
2022/03/24 12:17:34;;;;;;;25.63;20.33;;;;;;;;;;5050229;28;20551;-67
2022/03/24 12:20:18;;;;;;;28.50;19.70;;;;;;;;;;5050312;28;20173;-68
2022/03/24 12:22:43;;;;;;;25.52;20.02;;;;;;;;;;5047979;28;20693;-68
2022/03/24 12:25:09;;;;;;;24.63;19.00;;;;;;;;;;5049155;28;20204;-68
2022/03/24 12:27:53;;;;;;;21.27;18.20;;;;;;;;;;5050363;28;20205;-68
2022/03/24 12:30:18;;;;;;;23.35;18.77;;;;;;;;;;5045120;28;20190;-68
2022/03/24 12:33:03;;;;;;;22.60;18.48;;;;;;;;;;5048709;28;20186;-69
2022/03/24 12:35:37;;;;;;;26.58;18.05;;;;;;;;;;5053529;28;20548;-67
2022/03/24 12:38:19;;;;;;;20.65;17.60;;;;;;;;;;5049352;28;20219;-67
2022/03/24 12:41:03;;;;;;;20.65;18.10;;;;;;;;;;5042993;28;20177;-69
2022/03/24 12:43:29;;;;;;;22.83;19.17;;;;;;;;;;5052142;28;20268;-67
2022/03/24 12:46:14;;;;;;;21.45;17.42;;;;;;;;;;5043148;28;20694;-67
2022/03/24 12:48:39;;;;;;;23.38;17.80;;;;;;;;;;5049846;28;20200;-67
2022/03/24 12:51:15;;;;;;;23.50;17.48;;;;;;;;;;5050898;28;20178;-68
2022/03/24 12:53:50;;;;;;;29.38;18.42;;;;;;;;;;5043452;28;20242;-67
2022/03/24 12:56:22;;;;;;;21.17;16.65;;;;;;;;;;5046441;28;20780;-68
2022/03/24 12:58:51;;;;;;;26.35;16.80;;;;;;;;;;5046890;28;20753;-68
2022/03/24 13:01:16;;;;;;;25.30;18.17;;;;;;;;;;5046169;28;20204;-68
2022/03/24 13:03:42;;;;;;;27.80;18.13;;;;;;;;;;5046692;28;20193;-68
2022/03/24 13:06:07;;;;;;;27.50;17.63;;;;;;;;;;5053360;28;20191;-67
2022/03/24 13:08:32;;;;;;;24.65;17.13;;;;;;;;;;5047027;28;20200;-69
2022/03/24 13:11:04;;;;;;;19.95;17.23;;;;;;;;;;5049868;28;20564;-67
2022/03/24 13:13:29;;;;;;;20.20;17.05;;;;;;;;;;5048845;28;20647;-69
2022/03/24 13:15:54;;;;;;;25.02;17.00;;;;;;;;;;5047837;28;20243;-68
2022/03/24 13:18:23;;;;;;;24.77;17.33;;;;;;;;;;5052501;28;20201;-69
2022/03/24 13:20:51;;;;;;;22.70;16.48;;;;;;;;;;5049340;28;20323;-68
2022/03/24 13:23:18;;;;;;;23.55;16.98;;;;;;;;;;5045148;28;20171;-69
2022/03/24 13:25:45;;;;;;;26.52;17.02;;;;;;;;;;5048301;28;20178;-67
2022/03/24 13:28:11;;;;;;;24.27;16.00;;;;;;;;;;5048545;28;20208;-68
2022/03/24 13:30:38;;;;;;;21.88;16.30;;;;;;;;;;5050423;28;20174;-69
2022/03/24 13:33:04;;;;;;;20.08;15.70;;;;;;;;;;5051573;28;20249;-67
2022/03/24 13:35:34;;;;;;;21.02;17.80;;;;;;;;;;5050640;28;20202;-68
2022/03/24 13:38:00;;;;;;;25.73;16.33;;;;;;;;;;5027412;28;21756;-69
2022/03/24 13:40:30;;;;;;;22.63;16.42;;;;;;;;;;5053125;28;20178;-68
2022/03/24 13:42:56;;;;;;;25.95;16.55;;;;;;;;;;5046617;28;20212;-68
2022/03/24 13:45:21;;;;;;;20.13;16.42;;;;;;;;;;5052207;28;20178;-69
2022/03/24 13:47:56;;;;;;;23.98;17.75;;;;;;;;;;5051242;28;20260;-69
2022/03/24 13:50:25;;;;;;;23.02;17.23;;;;;;;;;;5051753;28;20559;-69
2022/03/24 13:52:51;;;;;;;24.40;17.13;;;;;;;;;;5052953;28;20195;-69
2022/03/24 13:55:26;;;;;;;26.63;17.88;;;;;;;;;;5050485;28;20235;-69
2022/03/24 13:57:52;;;;;;;21.55;16.58;;;;;;;;;;5045494;28;20201;-69
2022/03/24 14:00:25;;;;;;;21.33;16.63;;;;;;;;;;5049604;28;20185;-70
2022/03/24 14:02:54;;;;;;;23.88;16.65;;;;;;;;;;5050273;28;20549;-69
2022/03/24 14:05:19;;;;;;;24.80;16.90;;;;;;;;;;5048492;28;20278;-69
2022/03/24 14:07:58;;;;;;;21.73;16.80;;;;;;;;;;5051802;28;20569;-69
2022/03/24 14:10:42;;;;;;;19.63;15.82;;;;;;;;;;5049902;28;20439;-69
2022/03/24 14:13:20;;;;;;;23.02;16.25;;;;;;;;;;5050430;28;20239;-69
2022/03/24 14:15:45;;;;;;;20.02;15.77;;;;;;;;;;5051565;28;20192;-69